Time;durP1;ratioP1;P1;durP2;ratioP2;P2;SDS_P1;SDS_P2;PMS_P1;PMS_P2;Temp;Humidity;BMP_temperature;BMP_pressure;BME280_temperature;BME280_humidity;BME280_pressure;Samples;Min_cycle;Max_cycle;Signal;HPM_P1;HPM_P2
2022/12/21 00:02:12;;;;;;;41.08;20.75;;;8.60;99.90;;;;;;5092704;28;20044;-69
2022/12/21 00:04:38;;;;;;;41.42;20.42;;;8.70;99.90;;;;;;5092951;28;20046;-69
2022/12/21 00:07:03;;;;;;;36.75;19.80;;;8.70;99.90;;;;;;5092774;28;20119;-69
2022/12/21 00:09:29;;;;;;;43.88;20.88;;;8.50;99.90;;;;;;5087627;28;20115;-69
2022/12/21 00:11:54;;;;;;;46.08;22.80;;;8.50;99.90;;;;;;5089424;28;20467;-69
2022/12/21 00:14:20;;;;;;;45.28;19.73;;;8.40;99.90;;;;;;5092543;28;20181;-69
2022/12/21 00:16:45;;;;;;;45.17;21.70;;;8.40;99.90;;;;;;5092575;28;20040;-69
2022/12/21 00:19:13;;;;;;;49.13;21.13;;;8.30;99.90;;;;;;5092810;28;20040;-69
2022/12/21 00:21:39;;;;;;;44.55;20.35;;;8.20;99.90;;;;;;5092643;28;20036;-69
2022/12/21 00:24:05;;;;;;;43.63;19.65;;;8.20;99.90;;;;;;5092578;28;20047;-69
2022/12/21 00:26:33;;;;;;;38.22;19.35;;;8.30;99.90;;;;;;5092721;28;20051;-69
2022/12/21 00:28:59;;;;;;;42.97;19.83;;;8.20;99.90;;;;;;5092018;28;20081;-69
2022/12/21 00:31:30;;;;;;;44.95;20.92;;;8.10;99.90;;;;;;5074475;28;20035;-69
2022/12/21 00:33:57;;;;;;;42.85;21.38;;;8.00;99.90;;;;;;5092365;28;20173;-69
2022/12/21 00:36:25;;;;;;;36.90;20.15;;;8.10;99.90;;;;;;5092501;28;20063;-69
2022/12/21 00:38:51;;;;;;;35.70;19.38;;;8.00;99.90;;;;;;5092027;28;20489;-69
2022/12/21 00:41:19;;;;;;;38.63;20.50;;;7.90;99.90;;;;;;5092509;28;20078;-69
2022/12/21 00:43:46;;;;;;;43.25;21.92;;;7.90;99.90;;;;;;5091827;28;20050;-69
2022/12/21 00:46:20;;;;;;;44.75;21.20;;;7.90;99.90;;;;;;5092525;28;20032;-69
2022/12/21 00:48:46;;;;;;;42.40;21.73;;;8.10;99.90;;;;;;5092056;28;20272;-69
2022/12/21 00:51:18;;;;;;;50.13;21.98;;;8.00;99.90;;;;;;5092441;28;20035;-69
2022/12/21 00:53:45;;;;;;;41.35;20.50;;;7.90;99.90;;;;;;5073780;28;20040;-69
2022/12/21 00:56:11;;;;;;;48.05;22.58;;;8.10;99.90;;;;;;5092025;28;20054;-69
2022/12/21 00:58:37;;;;;;;52.08;23.10;;;8.00;99.90;;;;;;5073567;28;20046;-69
2022/12/21 01:01:09;;;;;;;53.97;22.60;;;7.90;99.90;;;;;;5092217;28;20501;-69
2022/12/21 01:03:34;;;;;;;47.30;23.73;;;7.80;99.90;;;;;;5091819;28;20062;-69
2022/12/21 01:06:00;;;;;;;45.35;21.77;;;7.90;99.90;;;;;;5092065;28;20545;-68
2022/12/21 01:08:26;;;;;;;51.83;22.42;;;8.00;99.90;;;;;;5091671;28;20105;-69
2022/12/21 01:11:03;;;;;;;58.80;24.00;;;7.90;99.90;;;;;;5073806;28;20061;-69
2022/12/21 01:13:30;;;;;;;55.83;21.75;;;8.00;99.90;;;;;;5073570;28;20040;-69
2022/12/21 01:15:56;;;;;;;46.83;20.95;;;7.90;99.90;;;;;;5073808;28;20454;-69
2022/12/21 01:18:22;;;;;;;47.22;20.58;;;7.90;99.90;;;;;;5091822;28;20036;-69
2022/12/21 01:20:50;;;;;;;47.17;20.42;;;7.90;99.90;;;;;;5091864;28;20044;-69
2022/12/21 01:23:16;;;;;;;47.13;21.48;;;7.90;99.90;;;;;;5073441;28;20075;-69
2022/12/21 01:25:43;;;;;;;39.30;21.52;;;7.90;99.90;;;;;;5091641;28;20043;-68
2022/12/21 01:28:09;;;;;;;64.10;22.90;;;7.80;99.90;;;;;;5091370;28;20043;-69
2022/12/21 01:30:35;;;;;;;51.75;21.90;;;7.70;99.90;;;;;;5073556;28;20047;-69
2022/12/21 01:33:01;;;;;;;49.70;21.75;;;7.70;99.90;;;;;;5091494;28;20036;-68
2022/12/21 01:35:26;;;;;;;42.03;19.80;;;7.70;99.90;;;;;;5073718;28;20040;-69
2022/12/21 01:37:52;;;;;;;41.85;21.48;;;7.70;99.90;;;;;;5091344;28;20032;-68
2022/12/21 01:40:18;;;;;;;45.38;19.20;;;7.70;99.90;;;;;;5073576;28;20455;-68
2022/12/21 01:42:44;;;;;;;52.70;23.35;;;7.80;99.90;;;;;;5073381;28;20115;-69
2022/12/21 01:45:18;;;;;;;59.80;24.27;;;7.80;99.90;;;;;;5073838;28;20115;-69
2022/12/21 01:47:53;;;;;;;53.65;22.85;;;7.70;99.90;;;;;;5073662;28;20500;-68
2022/12/21 01:50:26;;;;;;;66.78;25.27;;;7.80;99.90;;;;;;5091584;28;20048;-68
2022/12/21 01:52:53;;;;;;;50.77;21.93;;;7.60;99.90;;;;;;5091251;28;20524;-68
2022/12/21 01:55:18;;;;;;;60.55;22.83;;;7.70;99.90;;;;;;5073367;28;20115;-68
2022/12/21 01:57:45;;;;;;;47.72;20.65;;;7.70;99.90;;;;;;5073183;28;20119;-68
2022/12/21 02:00:11;;;;;;;48.53;20.30;;;7.60;99.90;;;;;;5091280;28;20103;-69
2022/12/21 02:02:42;;;;;;;47.65;19.38;;;7.60;99.90;;;;;;5073146;28;20040;-68
2022/12/21 02:05:28;;;;;;;45.67;19.52;;;7.80;99.90;;;;;;5091304;28;20039;-69
2022/12/21 02:07:58;;;;;;;38.28;18.83;;;7.60;99.90;;;;;;5091355;28;20111;-68
2022/12/21 02:10:23;;;;;;;49.20;20.48;;;7.60;99.90;;;;;;5091333;28;20063;-69
2022/12/21 02:12:54;;;;;;;45.67;18.23;;;7.60;99.90;;;;;;5091050;28;20068;-69
2022/12/21 02:15:25;;;;;;;43.33;18.38;;;7.50;99.90;;;;;;5091203;28;20509;-69
2022/12/21 02:18:13;;;;;;;51.83;18.35;;;7.70;99.90;;;;;;5076912;28;20044;-69
2022/12/21 02:20:50;;;;;;;35.83;17.13;;;7.50;99.90;;;;;;5076868;28;20040;-69
2022/12/21 02:23:44;;;;;;;85.63;22.30;;;7.50;99.90;;;;;;5094844;28;20043;-69
2022/12/21 02:26:54;;;;;;;32.65;16.17;;;7.60;99.90;;;;;;5095093;28;20126;-69
2022/12/21 02:30:18;;;;;;;40.88;17.00;;;7.50;99.90;;;;;;5094873;28;20036;-69
2022/12/21 02:33:18;;;;;;;43.92;18.50;;;7.50;99.90;;;;;;5012118;28;20089;-69
2022/12/21 02:36:02;;;;;;;73.72;18.33;;;7.50;99.90;;;;;;5094836;28;20044;-69
2022/12/21 02:38:33;;;;;;;30.65;14.32;;;7.50;99.90;;;;;;5094392;28;20494;-69
2022/12/21 02:41:01;;;;;;;40.78;16.42;;;7.40;99.90;;;;;;5094548;28;20516;-69
2022/12/21 02:46:33;;;;;;;89.40;18.83;;;7.60;99.90;;;;;;5094597;28;20044;-69
2022/12/21 02:49:22;;;;;;;;;;;7.60;99.90;;;;;;5094853;28;20086;-70
2022/12/21 02:52:05;;;;;;;32.75;15.52;;;7.50;99.90;;;;;;5083588;28;19920;-69
2022/12/21 02:54:30;;;;;;;41.93;16.37;;;7.50;99.90;;;;;;5094058;28;20475;-69
2022/12/21 02:56:56;;;;;;;64.13;19.58;;;7.40;99.90;;;;;;5094314;28;20365;-69
2022/12/21 02:59:29;;;;;;;43.20;16.20;;;7.40;99.90;;;;;;5076070;28;20050;-69
2022/12/21 03:02:31;;;;;;;25.02;14.43;;;7.40;99.90;;;;;;5059496;28;20490;-69
2022/12/21 03:05:23;;;;;;;76.75;17.15;;;7.50;99.90;;;;;;5094472;28;20066;-69
2022/12/21 03:08:14;;;;;;;29.92;12.80;;;7.40;99.90;;;;;;5076487;28;20124;-69
2022/12/21 03:11:00;;;;;;;23.95;11.85;;;7.30;99.90;;;;;;5094172;28;20096;-69
2022/12/21 03:13:34;;;;;;;31.25;11.63;;;7.30;99.90;;;;;;5093756;28;20043;-69
2022/12/21 03:16:34;;;;;;;44.20;13.30;;;7.40;99.90;;;;;;5093940;28;20090;-69
2022/12/21 03:19:10;;;;;;;26.15;12.30;;;7.20;99.90;;;;;;5093840;28;20528;-69
2022/12/21 03:21:45;;;;;;;23.13;11.95;;;7.20;99.90;;;;;;5075758;28;20505;-69
2022/12/21 03:24:22;;;;;;;21.48;12.00;;;7.10;99.90;;;;;;5093035;28;20036;-69
2022/12/21 03:26:56;;;;;;;20.48;11.02;;;7.10;99.90;;;;;;5075083;28;20171;-69
2022/12/21 03:29:26;;;;;;;19.88;11.68;;;7.30;99.90;;;;;;5091879;28;20036;-69
2022/12/21 03:31:59;;;;;;;21.95;11.27;;;7.30;99.90;;;;;;5075198;28;20093;-69
2022/12/21 03:34:29;;;;;;;20.23;11.27;;;7.40;99.90;;;;;;5058640;28;20032;-69
2022/12/21 03:37:04;;;;;;;19.80;11.95;;;7.30;99.90;;;;;;5075311;28;20122;-69
2022/12/21 03:39:32;;;;;;;25.00;12.38;;;7.30;99.90;;;;;;5093504;28;20043;-69
2022/12/21 03:42:05;;;;;;;23.42;12.85;;;7.30;99.90;;;;;;5075327;28;20048;-69
2022/12/21 03:44:39;;;;;;;24.05;12.32;;;7.40;99.90;;;;;;5093308;28;20050;-69
2022/12/21 03:47:10;;;;;;;23.20;11.93;;;7.40;99.90;;;;;;5093246;28;20044;-69
2022/12/21 03:49:42;;;;;;;18.55;10.40;;;7.40;99.90;;;;;;5093206;28;20094;-69
2022/12/21 03:52:12;;;;;;;61.13;15.90;;;7.40;99.90;;;;;;5093353;28;20036;-69
2022/12/21 03:54:43;;;;;;;23.13;12.43;;;7.50;99.90;;;;;;5093086;28;20068;-69
2022/12/21 03:57:10;;;;;;;21.95;11.77;;;7.40;99.90;;;;;;5093165;28;20486;-69
2022/12/21 03:59:39;;;;;;;24.65;12.43;;;7.40;99.90;;;;;;5092967;28;20044;-69
2022/12/21 04:02:39;;;;;;;31.38;12.38;;;7.40;99.90;;;;;;5093259;28;20036;-69
2022/12/21 04:05:11;;;;;;;21.83;11.55;;;7.50;99.90;;;;;;5074898;28;20044;-69
2022/12/21 04:07:39;;;;;;;19.42;10.02;;;7.30;99.90;;;;;;5092928;28;20080;-69
2022/12/21 04:10:09;;;;;;;21.02;10.52;;;7.40;99.90;;;;;;5074525;28;20549;-69
2022/12/21 04:12:37;;;;;;;22.02;10.98;;;7.40;99.90;;;;;;5092582;28;20479;-69
2022/12/21 04:15:12;;;;;;;24.95;11.40;;;7.50;99.90;;;;;;5092522;28;20032;-69
2022/12/21 04:17:39;;;;;;;35.70;12.45;;;7.60;99.90;;;;;;5074882;28;20444;-69
2022/12/21 04:20:06;;;;;;;21.30;10.23;;;7.60;99.90;;;;;;5092713;28;20032;-69
2022/12/21 04:28:10;;;;;;;30.45;11.80;;;7.40;99.90;;;;;;5092501;28;20102;-69
2022/12/21 04:30:41;;;;;;;27.38;12.13;;;7.60;99.90;;;;;;5074490;28;20040;-69
2022/12/21 04:33:11;;;;;;;21.65;10.25;;;7.50;99.90;;;;;;5091972;28;20122;-69
2022/12/21 04:37:30;;;;;;;22.00;9.88;;;7.40;99.90;;;;;;5074401;28;20403;-69
2022/12/21 04:38:27;;;;;;;22.08;9.35;;;7.30;99.90;;;;;;5089973;22;20515;-68
2022/12/21 04:40:53;;;;;;;22.80;9.30;;;7.40;99.90;;;;;;5052066;28;20560;-68
2022/12/21 04:43:19;;;;;;;19.13;8.60;;;7.40;99.90;;;;;;5051724;28;20041;-69
2022/12/21 04:45:45;;;;;;;23.67;10.63;;;7.50;99.90;;;;;;5051781;28;20043;-68
2022/12/21 04:48:10;;;;;;;25.20;10.65;;;7.40;99.90;;;;;;5034275;28;20037;-68
2022/12/21 04:50:38;;;;;;;18.92;9.48;;;7.50;99.90;;;;;;5052063;28;20052;-68
2022/12/21 04:53:04;;;;;;;21.15;10.35;;;7.40;99.90;;;;;;5051952;28;20115;-68
2022/12/21 04:55:30;;;;;;;19.25;8.75;;;7.40;99.90;;;;;;5034248;28;20124;-68
2022/12/21 04:57:55;;;;;;;20.38;10.20;;;7.60;99.90;;;;;;5051547;28;20037;-68
2022/12/21 05:00:21;;;;;;;20.85;9.80;;;7.40;99.90;;;;;;5052049;28;20119;-68
2022/12/21 05:02:46;;;;;;;21.17;10.10;;;7.60;99.90;;;;;;5051772;28;20101;-68
2022/12/21 05:05:12;;;;;;;20.83;9.80;;;7.50;99.90;;;;;;5051744;28;20514;-68
2022/12/21 05:07:37;;;;;;;17.25;8.85;;;7.40;99.90;;;;;;5051737;28;20045;-68
2022/12/21 05:10:03;;;;;;;18.92;9.18;;;7.40;99.90;;;;;;5051710;28;20506;-68
2022/12/21 05:12:28;;;;;;;24.17;9.65;;;7.40;99.90;;;;;;5051328;28;20461;-68
2022/12/21 05:14:54;;;;;;;17.42;9.52;;;7.50;99.90;;;;;;5034035;28;20037;-68
2022/12/21 05:17:20;;;;;;;19.05;8.90;;;7.40;99.90;;;;;;5033648;28;20045;-68
2022/12/21 05:19:46;;;;;;;18.67;9.20;;;7.40;99.90;;;;;;5033308;28;20081;-69
2022/12/21 05:22:16;;;;;;;18.55;9.75;;;7.40;99.90;;;;;;5033497;28;20036;-68
2022/12/21 05:24:43;;;;;;;17.02;8.80;;;7.30;99.90;;;;;;5013854;28;20048;-69
2022/12/21 05:27:09;;;;;;;20.65;10.20;;;7.30;99.90;;;;;;5031280;28;20441;-68
2022/12/21 05:29:34;;;;;;;22.08;9.75;;;7.30;99.90;;;;;;5031715;28;20095;-68
2022/12/21 05:32:00;;;;;;;20.10;10.27;;;7.40;99.90;;;;;;5031656;28;20109;-69
2022/12/21 05:34:25;;;;;;;21.25;9.95;;;7.40;99.90;;;;;;5013602;28;20038;-68
2022/12/21 05:36:51;;;;;;;22.55;11.38;;;7.40;99.90;;;;;;5013784;28;20037;-68
2022/12/21 05:39:16;;;;;;;42.03;12.35;;;7.40;99.90;;;;;;5031057;28;20096;-69
2022/12/21 05:41:42;;;;;;;57.85;14.00;;;7.20;99.90;;;;;;5013700;28;20044;-69
2022/12/21 05:44:09;;;;;;;24.15;11.95;;;7.30;99.90;;;;;;5031766;28;20053;-68
2022/12/21 05:46:34;;;;;;;20.90;10.75;;;7.20;99.90;;;;;;5014045;28;20096;-68
2022/12/21 05:49:00;;;;;;;23.10;11.10;;;7.40;99.90;;;;;;5031420;28;20507;-68
2022/12/21 05:51:26;;;;;;;22.67;10.57;;;7.40;99.90;;;;;;5015512;28;20395;-68
2022/12/21 05:53:52;;;;;;;47.78;11.48;;;7.40;99.90;;;;;;5035055;28;20076;-69
2022/12/21 05:56:18;;;;;;;19.55;9.52;;;7.20;99.90;;;;;;5035290;28;20497;-68
2022/12/21 05:58:45;;;;;;;44.65;12.27;;;7.30;99.90;;;;;;5017349;28;20487;-68
2022/12/21 06:01:12;;;;;;;20.83;9.70;;;7.30;99.90;;;;;;5017190;28;20052;-69
2022/12/21 06:03:38;;;;;;;21.45;9.23;;;7.30;99.90;;;;;;5017249;28;20094;-68
2022/12/21 06:06:07;;;;;;;19.85;8.82;;;7.30;99.90;;;;;;5017351;28;20052;-68
2022/12/21 06:08:33;;;;;;;21.98;10.45;;;7.30;99.90;;;;;;5034822;28;20099;-69
2022/12/21 06:11:16;;;;;;;24.73;10.80;;;7.30;99.90;;;;;;5034918;28;20283;-68
2022/12/21 06:13:42;;;;;;;24.02;10.68;;;7.20;99.90;;;;;;5017254;28;20041;-68
2022/12/21 06:16:13;;;;;;;26.30;11.98;;;7.30;99.90;;;;;;5017438;28;20053;-68
2022/12/21 06:18:40;;;;;;;26.50;12.63;;;7.30;99.90;;;;;;5017001;28;20049;-68
2022/12/21 06:21:07;;;;;;;24.70;12.00;;;7.20;99.90;;;;;;5034692;28;20052;-68
2022/12/21 06:23:33;;;;;;;28.73;12.80;;;7.20;99.90;;;;;;5000332;28;20056;-68
2022/12/21 06:26:00;;;;;;;30.15;12.73;;;7.30;99.90;;;;;;5017052;28;20061;-69
2022/12/21 06:28:26;;;;;;;34.78;13.85;;;7.30;99.90;;;;;;5016640;28;20122;-68
2022/12/21 06:30:53;;;;;;;30.55;12.70;;;7.10;99.90;;;;;;5016815;28;20037;-69
2022/12/21 06:33:20;;;;;;;31.08;12.93;;;7.10;99.90;;;;;;5034244;28;20033;-69
2022/12/21 06:35:47;;;;;;;28.50;13.45;;;7.30;99.90;;;;;;5034377;28;20045;-68
2022/12/21 06:38:13;;;;;;;44.10;14.50;;;7.20;99.90;;;;;;5016541;28;20051;-68
2022/12/21 06:40:38;;;;;;;29.10;12.77;;;7.30;99.90;;;;;;5034595;28;20116;-68
2022/12/21 06:43:04;;;;;;;29.35;12.05;;;7.20;99.90;;;;;;5034140;28;20069;-69
2022/12/21 06:45:29;;;;;;;26.42;13.18;;;7.30;99.90;;;;;;5034294;28;20042;-69
2022/12/21 06:47:55;;;;;;;24.95;11.27;;;7.30;99.90;;;;;;5016754;28;20553;-69
2022/12/21 06:50:22;;;;;;;48.45;15.43;;;7.10;99.90;;;;;;5033968;28;20041;-69
2022/12/21 06:52:48;;;;;;;33.97;13.57;;;7.00;99.90;;;;;;5034101;28;20041;-69
2022/12/21 06:55:15;;;;;;;32.88;14.57;;;7.10;99.90;;;;;;5016295;28;20039;-68
2022/12/21 06:57:41;;;;;;;38.47;15.52;;;7.10;99.90;;;;;;5034049;28;20052;-67
2022/12/21 07:00:09;;;;;;;27.15;14.10;;;7.10;99.90;;;;;;5033973;28;20041;-67
2022/12/21 07:02:35;;;;;;;33.13;14.93;;;7.10;99.90;;;;;;5033302;28;20509;-68
2022/12/21 07:05:00;;;;;;;60.92;18.27;;;7.10;99.90;;;;;;5033802;28;20038;-68
2022/12/21 07:07:26;;;;;;;36.80;15.98;;;7.10;99.90;;;;;;5033631;28;20044;-68
2022/12/21 07:09:51;;;;;;;42.03;19.33;;;7.10;99.90;;;;;;5016008;28;20116;-68
2022/12/21 07:12:17;;;;;;;33.08;15.95;;;7.10;99.90;;;;;;5015821;28;20411;-68
2022/12/21 07:14:43;;;;;;;39.88;16.85;;;7.10;99.90;;;;;;5015791;28;20510;-68
2022/12/21 07:17:09;;;;;;;37.20;17.35;;;7.10;99.90;;;;;;5033597;28;20657;-68
2022/12/21 07:19:35;;;;;;;37.60;16.55;;;7.40;99.90;;;;;;5033505;28;20083;-69
2022/12/21 07:22:00;;;;;;;40.95;19.55;;;7.20;99.90;;;;;;5015982;28;20079;-69
2022/12/21 07:24:26;;;;;;;39.28;19.10;;;7.30;99.90;;;;;;5018108;28;20099;-68
2022/12/21 07:26:51;;;;;;;44.45;19.13;;;7.20;99.90;;;;;;5042569;28;20037;-68
2022/12/21 07:29:17;;;;;;;43.67;18.63;;;7.20;99.90;;;;;;5022072;28;20087;-68
2022/12/21 07:31:43;;;;;;;40.05;18.65;;;7.10;99.90;;;;;;5033435;28;20037;-68
2022/12/21 07:34:08;;;;;;;36.97;17.92;;;7.30;99.90;;;;;;5032928;28;20033;-68
2022/12/21 07:36:34;;;;;;;36.80;16.75;;;7.20;99.90;;;;;;5033296;28;20099;-68
2022/12/21 07:38:59;;;;;;;37.85;19.75;;;7.40;99.90;;;;;;5015405;28;20060;-68
2022/12/21 07:41:25;;;;;;;37.28;18.05;;;7.20;99.90;;;;;;5015489;28;20037;-68
2022/12/21 07:43:50;;;;;;;54.63;21.83;;;7.30;99.90;;;;;;5032943;28;20057;-68
2022/12/21 07:46:17;;;;;;;47.03;20.73;;;7.10;99.90;;;;;;5033241;28;20041;-68
2022/12/21 07:48:42;;;;;;;37.88;19.42;;;7.30;99.90;;;;;;5032666;28;20389;-68
2022/12/21 07:51:08;;;;;;;43.70;19.88;;;7.30;99.90;;;;;;5043556;28;20032;-68
2022/12/21 07:53:34;;;;;;;43.47;18.80;;;7.10;99.90;;;;;;5032550;28;20037;-68
2022/12/21 07:56:06;;;;;;;40.40;20.08;;;7.30;99.90;;;;;;5028087;28;20122;-68
2022/12/21 07:58:33;;;;;;;52.72;22.98;;;7.20;99.90;;;;;;5052567;28;20521;-68
2022/12/21 08:01:04;;;;;;;37.00;18.60;;;7.40;99.90;;;;;;5035022;28;20548;-68
2022/12/21 08:03:30;;;;;;;39.83;18.50;;;7.40;99.90;;;;;;5034349;28;20044;-68
2022/12/21 08:05:56;;;;;;;42.35;20.80;;;7.40;99.90;;;;;;5034753;28;20118;-67
2022/12/21 08:08:21;;;;;;;50.38;22.40;;;7.40;99.90;;;;;;5034390;28;20049;-69
2022/12/21 08:10:46;;;;;;;60.38;23.13;;;7.40;99.90;;;;;;5034479;28;20037;-68
2022/12/21 08:13:12;;;;;;;48.40;22.60;;;7.30;99.90;;;;;;5051470;28;20067;-74
2022/12/21 08:15:38;;;;;;;57.80;24.77;;;7.40;99.90;;;;;;5034360;28;20618;-74
2022/12/21 08:18:03;;;;;;;46.53;20.98;;;7.30;99.90;;;;;;5033131;28;20033;-74
2022/12/21 08:20:29;;;;;;;54.20;23.48;;;7.30;99.90;;;;;;5034602;28;20049;-74
2022/12/21 08:22:54;;;;;;;70.03;26.52;;;7.50;99.90;;;;;;5034096;28;20438;-73
2022/12/21 08:25:20;;;;;;;69.03;25.77;;;7.30;99.90;;;;;;5034545;28;20485;-74
2022/12/21 08:27:46;;;;;;;88.88;30.55;;;7.40;99.90;;;;;;5034692;28;20048;-74
2022/12/21 08:30:12;;;;;;;92.72;30.70;;;7.40;99.90;;;;;;5034351;28;20105;-74
2022/12/21 08:32:37;;;;;;;61.78;25.80;;;7.30;99.90;;;;;;5034115;28;20041;-74
2022/12/21 08:35:03;;;;;;;75.75;28.30;;;7.50;99.90;;;;;;5034354;28;20037;-74
2022/12/21 08:37:29;;;;;;;68.22;27.70;;;7.30;99.90;;;;;;5034334;28;20509;-74
2022/12/21 08:39:54;;;;;;;90.22;30.70;;;7.30;99.90;;;;;;5034248;28;20044;-74
2022/12/21 08:42:20;;;;;;;84.25;30.45;;;7.40;99.90;;;;;;5017906;28;20051;-74
2022/12/21 08:44:47;;;;;;;78.97;29.02;;;7.50;99.90;;;;;;5034147;28;20047;-74
2022/12/21 08:47:13;;;;;;;60.55;24.27;;;7.40;99.90;;;;;;5033922;28;20040;-74
2022/12/21 08:49:39;;;;;;;86.20;30.13;;;7.50;99.90;;;;;;5034079;28;20073;-74
2022/12/21 08:52:05;;;;;;;84.63;30.08;;;7.50;99.90;;;;;;5017623;28;20037;-73
2022/12/21 08:54:31;;;;;;;93.93;29.35;;;7.40;99.90;;;;;;5033797;28;20048;-74
2022/12/21 08:56:56;;;;;;;79.55;28.35;;;7.40;99.90;;;;;;5034014;28;20037;-74
2022/12/21 08:59:22;;;;;;;88.00;29.70;;;7.40;99.90;;;;;;5034177;28;20040;-74
2022/12/21 09:01:47;;;;;;;92.80;29.50;;;7.50;99.90;;;;;;5051725;28;20127;-74
2022/12/21 09:04:13;;;;;;;94.60;28.25;;;7.50;99.90;;;;;;5033786;28;20075;-74
2022/12/21 09:06:39;;;;;;;78.50;28.63;;;7.60;99.90;;;;;;5017804;28;20238;-74
2022/12/21 09:09:04;;;;;;;97.38;31.17;;;7.70;99.90;;;;;;5033878;28;20425;-74
2022/12/21 09:11:30;;;;;;;93.70;30.25;;;7.60;99.90;;;;;;5033874;28;20505;-74
2022/12/21 09:13:56;;;;;;;88.40;30.90;;;7.70;99.90;;;;;;5033494;28;20403;-74
2022/12/21 09:16:23;;;;;;;80.72;27.05;;;7.70;99.90;;;;;;5033617;28;20127;-74
2022/12/21 09:18:49;;;;;;;79.30;29.10;;;7.70;99.90;;;;;;5033627;28;20044;-74
2022/12/21 09:21:17;;;;;;;92.45;30.77;;;7.70;99.90;;;;;;5033695;28;20048;-74
2022/12/21 09:23:43;;;;;;;84.85;28.80;;;7.80;99.90;;;;;;5033270;28;20045;-73
2022/12/21 09:26:10;;;;;;;76.63;29.50;;;7.80;99.90;;;;;;5016318;28;20037;-73
2022/12/21 09:28:36;;;;;;;79.78;26.95;;;7.80;99.90;;;;;;5030882;28;20041;-73
2022/12/21 09:31:19;;;;;;;79.53;28.40;;;7.90;99.90;;;;;;5030302;28;20175;-74
2022/12/21 09:33:45;;;;;;;86.93;29.40;;;7.90;99.90;;;;;;5032370;28;20037;-73
2022/12/21 09:36:12;;;;;;;79.18;27.63;;;7.90;99.90;;;;;;5008895;28;20403;-74
2022/12/21 09:38:38;;;;;;;99.72;31.38;;;7.90;99.90;;;;;;5033317;28;20112;-74
2022/12/21 09:41:20;;;;;;;67.55;27.25;;;7.90;99.90;;;;;;5033527;28;20040;-74
2022/12/21 09:43:58;;;;;;;71.28;28.77;;;8.00;99.90;;;;;;5016711;28;20045;-74
2022/12/21 09:46:25;;;;;;;69.53;24.73;;;8.00;99.90;;;;;;5033350;28;20049;-74
2022/12/21 09:48:54;;;;;;;86.30;30.35;;;7.90;99.90;;;;;;5033309;28;20052;-74
2022/12/21 09:51:23;;;;;;;85.00;30.13;;;7.90;99.90;;;;;;5033287;28;20045;-74
2022/12/21 09:53:59;;;;;;;79.68;28.77;;;8.00;99.90;;;;;;5032893;28;20230;-74
2022/12/21 09:56:26;;;;;;;88.00;30.48;;;7.90;99.90;;;;;;5033316;28;20040;-74
2022/12/21 09:58:53;;;;;;;72.72;28.08;;;8.00;99.90;;;;;;5033215;28;20049;-74
2022/12/21 10:01:45;;;;;;;105.18;34.90;;;8.00;99.90;;;;;;5016988;28;20037;-74
2022/12/21 10:04:10;;;;;;;80.85;30.63;;;8.00;99.90;;;;;;5016463;28;20053;-74
2022/12/21 10:07:11;;;;;;;90.38;31.23;;;8.00;99.90;;;;;;5033467;28;20071;-74
2022/12/21 10:09:54;;;;;;;72.38;31.13;;;7.90;99.90;;;;;;5033235;28;20503;-75
2022/12/21 10:12:29;;;;;;;76.38;28.55;;;8.00;99.90;;;;;;5050963;28;20052;-74
2022/12/21 10:15:00;;;;;;;70.30;30.98;;;8.00;99.90;;;;;;5051267;28;20033;-74
2022/12/21 10:17:43;;;;;;;83.72;31.83;;;8.10;99.90;;;;;;5033108;28;20095;-74
2022/12/21 10:20:46;;;;;;;76.07;29.97;;;8.10;99.90;;;;;;5017077;28;20415;-74
2022/12/21 10:23:29;;;;;;;83.47;32.00;;;8.00;99.90;;;;;;5016320;28;20044;-74
2022/12/21 10:25:57;;;;;;;84.32;30.30;;;7.90;99.90;;;;;;5033421;28;20033;-75
2022/12/21 10:28:26;;;;;;;83.97;31.13;;;8.00;99.90;;;;;;5016465;28;20122;-74
2022/12/21 10:31:24;;;;;;;92.93;34.00;;;8.10;99.90;;;;;;5033122;28;20653;-75
2022/12/21 10:33:51;;;;;;;105.28;35.17;;;8.20;99.90;;;;;;5000290;28;20045;-74
2022/12/21 10:36:20;;;;;;;82.65;32.55;;;8.20;99.90;;;;;;5033041;28;20037;-74
2022/12/21 10:38:46;;;;;;;87.45;33.65;;;8.20;99.90;;;;;;5054447;22;20333;-73
2022/12/21 10:41:22;;;;;;;76.18;30.77;;;8.30;99.90;;;;;;5074419;28;20127;-73
2022/12/21 10:43:52;;;;;;;78.55;30.88;;;8.20;99.90;;;;;;5073742;28;20033;-73
2022/12/21 10:46:19;;;;;;;59.22;28.20;;;8.30;99.90;;;;;;5073892;28;20098;-73
2022/12/21 10:48:47;;;;;;;66.70;28.63;;;8.30;99.90;;;;;;5056261;28;20040;-72
2022/12/21 10:51:16;;;;;;;74.20;28.35;;;8.30;99.90;;;;;;5056530;28;20036;-72
2022/12/21 10:53:57;;;;;;;67.97;27.67;;;8.30;99.90;;;;;;5073821;28;20032;-72
2022/12/21 10:56:25;;;;;;;67.97;29.08;;;8.10;99.90;;;;;;5056100;28;20081;-72
2022/12/21 10:58:52;;;;;;;60.80;26.25;;;8.10;99.90;;;;;;5074087;28;20051;-72
2022/12/21 11:01:27;;;;;;;55.33;25.42;;;8.20;99.90;;;;;;5039468;28;20044;-72
2022/12/21 11:04:26;;;;;;;55.53;23.83;;;8.10;99.90;;;;;;5055784;28;20048;-72
2022/12/21 11:06:57;;;;;;;55.58;25.98;;;8.10;99.90;;;;;;5056005;28;20128;-72
2022/12/21 11:09:30;;;;;;;54.05;25.48;;;8.20;99.90;;;;;;5073338;28;20512;-72
2022/12/21 11:11:56;;;;;;;63.75;27.27;;;8.10;99.90;;;;;;5056034;28;20041;-73
2022/12/21 11:14:23;;;;;;;60.38;25.25;;;8.20;99.90;;;;;;5056108;28;20398;-72
2022/12/21 11:16:49;;;;;;;61.33;25.70;;;8.10;99.90;;;;;;5055879;28;20375;-72
2022/12/21 11:19:21;;;;;;;56.15;25.13;;;8.10;99.90;;;;;;5055568;28;20044;-72
2022/12/21 11:21:51;;;;;;;60.30;25.83;;;8.10;99.90;;;;;;5055712;28;20072;-72
2022/12/21 11:24:24;;;;;;;63.08;26.33;;;8.10;99.90;;;;;;5055657;28;20443;-72
2022/12/21 11:26:57;;;;;;;54.42;23.50;;;8.10;99.90;;;;;;5074037;28;20111;-72
2022/12/21 11:29:48;;;;;;;52.15;22.45;;;8.10;99.90;;;;;;5073367;28;20495;-72
2022/12/21 11:32:15;;;;;;;57.13;23.45;;;8.10;99.90;;;;;;5073482;28;20478;-72
2022/12/21 11:34:55;;;;;;;65.03;25.10;;;8.10;99.90;;;;;;5055269;28;20033;-72
2022/12/21 11:38:03;;;;;;;60.92;25.00;;;8.20;99.90;;;;;;5055325;28;20119;-72
2022/12/21 11:40:30;;;;;;;56.55;24.33;;;8.10;99.90;;;;;;5045441;28;20144;-72
2022/12/21 11:43:03;;;;;;;61.33;24.70;;;8.00;99.90;;;;;;5073020;28;20089;-72
2022/12/21 11:45:37;;;;;;;73.43;32.30;;;8.10;99.90;;;;;;5054897;28;20470;-71
2022/12/21 11:48:18;;;;;;;69.57;37.05;;;8.20;99.90;;;;;;5054501;28;20045;-71
2022/12/21 11:51:04;;;;;;;56.63;27.85;;;8.60;99.90;;;;;;5054372;28;20041;-71
2022/12/21 11:53:43;;;;;;;51.55;23.35;;;8.60;99.90;;;;;;5072489;28;20044;-71
2022/12/21 11:56:33;;;;;;;48.60;22.27;;;8.80;99.90;;;;;;5054944;28;20040;-71
2022/12/21 11:59:40;;;;;;;53.08;20.67;;;8.70;99.90;;;;;;5080357;28;20044;-71
2022/12/21 12:02:46;;;;;;;46.63;19.48;;;8.90;99.90;;;;;;5055131;28;20476;-71
2022/12/21 12:05:29;;;;;;;51.45;19.33;;;9.00;99.90;;;;;;5072884;28;20114;-71
2022/12/21 12:08:08;;;;;;;46.15;21.13;;;9.10;99.90;;;;;;5072390;28;20398;-72
2022/12/21 12:10:45;;;;;;;53.17;20.73;;;9.00;99.90;;;;;;5054599;28;20437;-72
2022/12/21 12:13:16;;;;;;;43.97;18.52;;;9.10;99.90;;;;;;5054244;28;20040;-71
2022/12/21 12:16:13;;;;;;;42.55;17.02;;;9.20;99.90;;;;;;5072616;28;20067;-73
2022/12/21 12:18:47;;;;;;;42.97;17.80;;;9.30;99.90;;;;;;5027835;28;20395;-71
2022/12/21 12:21:33;;;;;;;44.38;18.17;;;9.30;99.90;;;;;;5072325;28;20032;-71
2022/12/21 12:24:17;;;;;;;43.88;19.63;;;9.40;99.90;;;;;;5072217;28;20041;-71
2022/12/21 12:27:10;;;;;;;38.60;16.50;;;9.30;99.90;;;;;;5072360;28;20064;-72
2022/12/21 12:29:54;;;;;;;35.80;16.10;;;9.50;99.90;;;;;;5072010;28;20040;-71
2022/12/21 12:32:29;;;;;;;;;;;9.50;99.90;;;;;;5073838;28;20041;-72
2022/12/21 12:35:15;;;;;;;38.42;17.10;;;9.40;99.90;;;;;;5057357;28;19924;-71
2022/12/21 12:38:22;;;;;;;45.65;15.93;;;9.30;99.90;;;;;;5051178;28;20036;-71
2022/12/21 12:41:26;;;;;;;40.33;16.23;;;9.30;99.90;;;;;;5054014;28;20489;-71
2022/12/21 12:44:00;;;;;;;42.92;16.65;;;9.30;99.90;;;;;;5071758;28;20047;-71
2022/12/21 12:46:56;;;;;;;41.58;16.75;;;9.40;99.90;;;;;;5054095;28;20505;-72
2022/12/21 12:49:43;;;;;;;38.67;16.50;;;9.40;99.90;;;;;;5054090;28;20052;-72
2022/12/21 12:52:56;;;;;;;43.35;17.02;;;9.30;99.90;;;;;;5071998;28;20036;-71
2022/12/21 12:55:58;;;;;;;42.08;17.30;;;9.40;99.90;;;;;;5070973;28;20036;-71
2022/12/21 12:58:33;;;;;;;40.80;16.38;;;9.40;99.90;;;;;;5092140;28;20092;-72
2022/12/21 13:01:14;;;;;;;38.78;17.65;;;9.30;99.90;;;;;;5091756;28;20040;-72
2022/12/21 13:04:19;;;;;;;36.00;14.65;;;9.30;99.90;;;;;;5091860;28;20165;-72
2022/12/21 13:07:05;;;;;;;41.22;16.58;;;9.40;99.90;;;;;;5073398;28;20032;-73
2022/12/21 13:09:54;;;;;;;46.55;19.30;;;9.40;99.90;;;;;;5091612;28;20051;-73
2022/12/21 13:12:51;;;;;;;35.58;17.58;;;9.10;99.90;;;;;;5073362;28;20071;-74